SACO/COR METAR and TAF weather

Enter ICAO airport designator
Station Type Date Time Source
SACO METAR 2021/09/16 22:00 UTC NOAA

SACO 162200Z 05009KT CAVOK 19/M03 Q1019 NOSIG


Station Type Date Time Source
SACO Decoded METAR 2021/09/16 22:00 UTC NOAA

Cordoba Aerodrome, Argentina (SACO) 31-19S 064-13W 474M
Sep 16, 2021 - 06:00 PM EDT / 2021.09.16 2200 UTC
Wind: from the NE (050 degrees) at 10 MPH (9 KT):0
Visibility: greater than 7 mile(s):0
Temperature: 66 F (19 C)
Dew Point: 26 F (-3 C)
Relative Humidity: 22%
Pressure (altimeter): 30.09 in. Hg (1019 hPa)
ob: SACO 162200Z 05009KT CAVOK 19/M03 Q1019 NOSIG
cycle: 22

Station Type Date Time Source
SACO TAF 2021/09/16 18:21 UTC NOAA

TAF TAF SACO 161700Z 1618/1718 05015KT CAVOK TX28/1718Z TN06/1710Z
BECMG 1700/1703 34005KT
BECMG 1713/1716 02015KT

Example: see airport list